sensor_id;sensor_type;location;lat;lon;timestamp;pressure;altitude;pressure_sealevel;temperature;humidity
54816;BME280;40715;55.752;37.884;2023-08-20T00:01:27;99519.22;;;35.54;29.48
54816;BME280;40715;55.752;37.884;2023-08-20T00:03:55;99515.66;;;35.54;29.50
54816;BME280;40715;55.752;37.884;2023-08-20T00:06:23;99510.19;;;35.54;29.43
54816;BME280;40715;55.752;37.884;2023-08-20T00:08:50;99512.91;;;35.54;29.54
54816;BME280;40715;55.752;37.884;2023-08-20T00:11:17;99506.41;;;35.55;29.45
54816;BME280;40715;55.752;37.884;2023-08-20T00:13:44;99509.97;;;35.55;29.38
54816;BME280;40715;55.752;37.884;2023-08-20T00:16:12;99503.41;;;35.50;29.64
54816;BME280;40715;55.752;37.884;2023-08-20T00:18:40;99507.66;;;35.52;29.49
54816;BME280;40715;55.752;37.884;2023-08-20T00:21:08;99502.56;;;35.49;29.39
54816;BME280;40715;55.752;37.884;2023-08-20T00:23:36;99498.59;;;35.52;29.59
54816;BME280;40715;55.752;37.884;2023-08-20T00:26:03;99501.13;;;35.53;29.57
54816;BME280;40715;55.752;37.884;2023-08-20T00:28:31;99500.72;;;35.56;29.47
54816;BME280;40715;55.752;37.884;2023-08-20T00:31:01;99498.19;;;35.55;29.50
54816;BME280;40715;55.752;37.884;2023-08-20T00:33:28;99492.03;;;35.53;29.65
54816;BME280;40715;55.752;37.884;2023-08-20T00:35:55;99485.31;;;35.55;29.54
54816;BME280;40715;55.752;37.884;2023-08-20T00:38:22;99483.63;;;35.54;29.44
54816;BME280;40715;55.752;37.884;2023-08-20T00:40:49;99479.84;;;35.55;29.62
54816;BME280;40715;55.752;37.884;2023-08-20T00:43:16;99481.53;;;35.56;29.62
54816;BME280;40715;55.752;37.884;2023-08-20T00:45:43;99475.19;;;35.56;29.50
54816;BME280;40715;55.752;37.884;2023-08-20T00:48:11;99473.53;;;35.55;29.58
54816;BME280;40715;55.752;37.884;2023-08-20T00:50:39;99466.97;;;35.56;29.64
54816;BME280;40715;55.752;37.884;2023-08-20T00:53:08;99463.41;;;35.55;29.25
54816;BME280;40715;55.752;37.884;2023-08-20T00:55:38;99459.84;;;35.55;29.45
54816;BME280;40715;55.752;37.884;2023-08-20T00:58:05;99455.38;;;35.54;29.46
54816;BME280;40715;55.752;37.884;2023-08-20T01:00:32;99457.09;;;35.55;29.54
54816;BME280;40715;55.752;37.884;2023-08-20T01:03:00;99460.88;;;35.54;29.24
54816;BME280;40715;55.752;37.884;2023-08-20T01:05:31;99448.63;;;35.50;29.47
54816;BME280;40715;55.752;37.884;2023-08-20T01:10:47;99446.34;;;35.53;29.55
54816;BME280;40715;55.752;37.884;2023-08-20T01:13:19;99442.78;;;35.59;29.48
54816;BME280;40715;55.752;37.884;2023-08-20T01:15:46;99441.25;;;35.50;29.55
54816;BME280;40715;55.752;37.884;2023-08-20T01:18:13;99439.78;;;35.48;29.67
54816;BME280;40715;55.752;37.884;2023-08-20T01:20:45;99441.00;;;35.45;29.73
54816;BME280;40715;55.752;37.884;2023-08-20T01:28:31;99448.81;;;35.48;29.70
54816;BME280;40715;55.752;37.884;2023-08-20T01:31:00;99446.50;;;35.45;29.64
54816;BME280;40715;55.752;37.884;2023-08-20T01:33:30;99445.66;;;35.45;29.58
54816;BME280;40715;55.752;37.884;2023-08-20T01:35:58;99444.59;;;35.46;29.64
54816;BME280;40715;55.752;37.884;2023-08-20T01:38:25;99442.72;;;35.46;29.81
54816;BME280;40715;55.752;37.884;2023-08-20T01:40:52;99444.38;;;35.47;29.82
54816;BME280;40715;55.752;37.884;2023-08-20T01:43:19;99437.25;;;35.46;29.73
54816;BME280;40715;55.752;37.884;2023-08-20T01:45:46;99441.66;;;35.47;29.46
54816;BME280;40715;55.752;37.884;2023-08-20T01:48:13;99441.44;;;35.49;29.47
54816;BME280;40715;55.752;37.884;2023-08-20T01:50:40;99441.44;;;35.49;29.62
54816;BME280;40715;55.752;37.884;2023-08-20T01:53:07;99451.56;;;35.48;29.81
54816;BME280;40715;55.752;37.884;2023-08-20T01:55:34;99446.50;;;35.45;29.71
54816;BME280;40715;55.752;37.884;2023-08-20T01:58:01;99455.34;;;35.47;29.56
54816;BME280;40715;55.752;37.884;2023-08-20T02:00:27;99453.66;;;35.46;29.70
54816;BME280;40715;55.752;37.884;2023-08-20T02:02:55;99461.03;;;35.46;29.57
54816;BME280;40715;55.752;37.884;2023-08-20T02:05:22;99463.56;;;35.47;29.56
54816;BME280;40715;55.752;37.884;2023-08-20T02:07:49;99463.75;;;35.46;29.60
54816;BME280;40715;55.752;37.884;2023-08-20T02:10:16;99457.66;;;35.43;29.91
54816;BME280;40715;55.752;37.884;2023-08-20T02:12:45;99464.63;;;35.46;29.82
54816;BME280;40715;55.752;37.884;2023-08-20T02:15:12;99459.16;;;35.46;29.83
54816;BME280;40715;55.752;37.884;2023-08-20T02:17:39;99461.88;;;35.46;29.67
54816;BME280;40715;55.752;37.884;2023-08-20T02:20:07;99462.94;;;35.45;29.74
54816;BME280;40715;55.752;37.884;2023-08-20T02:22:39;99461.88;;;35.46;29.85
54816;BME280;40715;55.752;37.884;2023-08-20T02:25:06;99455.94;;;35.42;29.87
54816;BME280;40715;55.752;37.884;2023-08-20T02:27:33;99469.03;;;35.47;29.75
54816;BME280;40715;55.752;37.884;2023-08-20T02:30:00;99466.28;;;35.47;29.76
54816;BME280;40715;55.752;37.884;2023-08-20T02:32:32;99463.34;;;35.49;29.66
54816;BME280;40715;55.752;37.884;2023-08-20T02:35:00;99459.16;;;35.46;29.71
54816;BME280;40715;55.752;37.884;2023-08-20T02:37:29;99447.31;;;35.46;29.67
54816;BME280;40715;55.752;37.884;2023-08-20T02:39:56;99439.50;;;35.42;29.86
54816;BME280;40715;55.752;37.884;2023-08-20T02:42:23;99433.84;;;35.44;29.89
54816;BME280;40715;55.752;37.884;2023-08-20T02:44:50;99431.75;;;35.46;29.84
54816;BME280;40715;55.752;37.884;2023-08-20T02:47:17;99426.66;;;35.43;29.60
54816;BME280;40715;55.752;37.884;2023-08-20T02:49:44;99423.75;;;35.45;29.86
54816;BME280;40715;55.752;37.884;2023-08-20T02:52:11;99410.22;;;35.43;29.77
54816;BME280;40715;55.752;37.884;2023-08-20T02:54:38;99417.19;;;35.46;29.89
54816;BME280;40715;55.752;37.884;2023-08-20T02:57:05;99422.25;;;35.42;29.84
54816;BME280;40715;55.752;37.884;2023-08-20T02:59:32;99419.31;;;35.43;29.90
54816;BME280;40715;55.752;37.884;2023-08-20T03:01:59;99422.66;;;35.46;29.84
54816;BME280;40715;55.752;37.884;2023-08-20T03:04:26;99421.44;;;35.48;29.81
54816;BME280;40715;55.752;37.884;2023-08-20T03:06:53;99425.66;;;35.51;29.82
54816;BME280;40715;55.752;37.884;2023-08-20T03:09:20;99435.75;;;35.50;29.87
54816;BME280;40715;55.752;37.884;2023-08-20T03:11:47;99446.91;;;35.49;29.84
54816;BME280;40715;55.752;37.884;2023-08-20T03:14:14;99444.19;;;35.49;29.93
54816;BME280;40715;55.752;37.884;2023-08-20T03:16:41;99442.72;;;35.53;29.70
54816;BME280;40715;55.752;37.884;2023-08-20T03:19:08;99448.22;;;35.53;29.80
54816;BME280;40715;55.752;37.884;2023-08-20T03:21:34;99464.25;;;35.56;29.70
54816;BME280;40715;55.752;37.884;2023-08-20T03:24:02;99460.03;;;35.53;29.62
54816;BME280;40715;55.752;37.884;2023-08-20T03:26:29;99476.06;;;35.56;29.75
54816;BME280;40715;55.752;37.884;2023-08-20T03:28:56;99471.41;;;35.57;29.98
54816;BME280;40715;55.752;37.884;2023-08-20T03:31:22;99476.91;;;35.57;29.80
54816;BME280;40715;55.752;37.884;2023-08-20T03:33:50;99477.56;;;35.59;29.77
54816;BME280;40715;55.752;37.884;2023-08-20T03:36:16;99463.16;;;35.50;29.92
54816;BME280;40715;55.752;37.884;2023-08-20T03:38:43;99480.09;;;35.60;29.86
54816;BME280;40715;55.752;37.884;2023-08-20T03:41:10;99478.00;;;35.63;29.79
54816;BME280;40715;55.752;37.884;2023-08-20T03:43:37;99493.59;;;35.62;29.63
54816;BME280;40715;55.752;37.884;2023-08-20T03:46:04;99478.84;;;35.63;29.88
54816;BME280;40715;55.752;37.884;2023-08-20T03:48:31;99464.28;;;35.63;29.68
54816;BME280;40715;55.752;37.884;2023-08-20T03:50:58;99477.78;;;35.64;29.66
54816;BME280;40715;55.752;37.884;2023-08-20T03:53:25;99497.16;;;35.63;29.57
54816;BME280;40715;55.752;37.884;2023-08-20T03:55:52;99495.47;;;35.62;29.72
54816;BME280;40715;55.752;37.884;2023-08-20T03:58:19;99494.22;;;35.64;29.61
54816;BME280;40715;55.752;37.884;2023-08-20T04:00:46;99498.88;;;35.64;29.69
54816;BME280;40715;55.752;37.884;2023-08-20T04:03:14;99492.56;;;35.63;29.64
54816;BME280;40715;55.752;37.884;2023-08-20T04:05:41;99486.22;;;35.63;29.86
54816;BME280;40715;55.752;37.884;2023-08-20T04:08:08;99471.47;;;35.64;29.53
54816;BME280;40715;55.752;37.884;2023-08-20T04:10:35;99466.19;;;35.62;29.83
54816;BME280;40715;55.752;37.884;2023-08-20T04:13:02;99455.88;;;35.64;29.67
54816;BME280;40715;55.752;37.884;2023-08-20T04:15:29;99436.91;;;35.63;29.60
54816;BME280;40715;55.752;37.884;2023-08-20T04:17:56;99435.03;;;35.63;29.51
54816;BME280;40715;55.752;37.884;2023-08-20T04:20:23;99429.53;;;35.63;29.45
54816;BME280;40715;55.752;37.884;2023-08-20T04:22:50;99412.03;;;35.64;29.64
54816;BME280;40715;55.752;37.884;2023-08-20T04:25:17;99382.91;;;35.56;29.47
54816;BME280;40715;55.752;37.884;2023-08-20T04:27:45;99387.78;;;35.61;29.66
54816;BME280;40715;55.752;37.884;2023-08-20T04:30:12;99386.09;;;35.60;29.49
54816;BME280;40715;55.752;37.884;2023-08-20T04:32:39;99391.34;;;35.62;29.54
54816;BME280;40715;55.752;37.884;2023-08-20T04:35:06;99374.28;;;35.59;29.93
54816;BME280;40715;55.752;37.884;2023-08-20T04:37:33;99364.81;;;35.62;29.58
54816;BME280;40715;55.752;37.884;2023-08-20T04:40:01;99345.19;;;35.58;29.78
54816;BME280;40715;55.752;37.884;2023-08-20T04:42:31;99365.44;;;35.57;29.65
54816;BME280;40715;55.752;37.884;2023-08-20T04:44:58;99388.81;;;35.60;29.75
54816;BME280;40715;55.752;37.884;2023-08-20T04:47:25;99393.25;;;35.61;29.65
54816;BME280;40715;55.752;37.884;2023-08-20T04:49:52;99386.94;;;35.60;29.74
54816;BME280;40715;55.752;37.884;2023-08-20T04:52:19;99387.78;;;35.61;29.58
54816;BME280;40715;55.752;37.884;2023-08-20T04:54:47;99383.97;;;35.55;29.57
54816;BME280;40715;55.752;37.884;2023-08-20T04:57:14;99390.09;;;35.57;29.78
54816;BME280;40715;55.752;37.884;2023-08-20T04:59:42;99396.22;;;35.59;29.77
54816;BME280;40715;55.752;37.884;2023-08-20T05:02:12;99396.00;;;35.61;29.67
54816;BME280;40715;55.752;37.884;2023-08-20T05:04:39;99401.06;;;35.57;29.55
54816;BME280;40715;55.752;37.884;2023-08-20T05:07:06;99398.94;;;35.59;29.62
54816;BME280;40715;55.752;37.884;2023-08-20T05:09:33;99411.34;;;35.55;29.50
54816;BME280;40715;55.752;37.884;2023-08-20T05:12:01;99413.69;;;35.58;29.67
54816;BME280;40715;55.752;37.884;2023-08-20T05:14:28;99403.59;;;35.59;29.58
54816;BME280;40715;55.752;37.884;2023-08-20T05:16:56;99411.59;;;35.60;29.64
54816;BME280;40715;55.752;37.884;2023-08-20T05:19:23;99403.59;;;35.59;29.63
54816;BME280;40715;55.752;37.884;2023-08-20T05:21:50;99398.31;;;35.57;29.50
54816;BME280;40715;55.752;37.884;2023-08-20T05:24:17;99398.75;;;35.61;29.71
54816;BME280;40715;55.752;37.884;2023-08-20T05:26:44;99398.13;;;35.59;29.58
54816;BME280;40715;55.752;37.884;2023-08-20T05:29:11;99391.97;;;35.57;29.63
54816;BME280;40715;55.752;37.884;2023-08-20T05:31:38;99399.97;;;35.58;29.73
54816;BME280;40715;55.752;37.884;2023-08-20T05:34:05;99390.09;;;35.57;29.76
54816;BME280;40715;55.752;37.884;2023-08-20T05:36:32;99391.97;;;35.57;29.78
54816;BME280;40715;55.752;37.884;2023-08-20T05:38:59;99384.00;;;35.62;29.71
54816;BME280;40715;55.752;37.884;2023-08-20T05:41:25;99378.53;;;35.62;29.71
54816;BME280;40715;55.752;37.884;2023-08-20T05:43:52;99381.25;;;35.62;29.70
54816;BME280;40715;55.752;37.884;2023-08-20T05:46:19;99376.41;;;35.64;29.91
54816;BME280;40715;55.752;37.884;2023-08-20T05:48:46;99378.72;;;35.67;29.52
54816;BME280;40715;55.752;37.884;2023-08-20T05:51:13;99373.91;;;35.69;29.45
54816;BME280;40715;55.752;37.884;2023-08-20T05:53:40;99376.69;;;35.76;29.56
54816;BME280;40715;55.752;37.884;2023-08-20T05:56:07;99370.34;;;35.75;29.44
54816;BME280;40715;55.752;37.884;2023-08-20T05:58:34;99365.31;;;35.79;29.27
54816;BME280;40715;55.752;37.884;2023-08-20T06:01:01;99358.78;;;35.80;29.62
54816;BME280;40715;55.752;37.884;2023-08-20T06:03:28;99360.28;;;35.83;29.75
54816;BME280;40715;55.752;37.884;2023-08-20T06:05:57;99364.72;;;35.84;29.23
54816;BME280;40715;55.752;37.884;2023-08-20T06:08:28;99363.47;;;35.86;29.16
54816;BME280;40715;55.752;37.884;2023-08-20T06:10:55;99341.97;;;35.90;29.52
54816;BME280;40715;55.752;37.884;2023-08-20T06:13:22;99345.38;;;35.92;29.39
54816;BME280;40715;55.752;37.884;2023-08-20T06:15:49;99341.53;;;35.93;29.13
54816;BME280;40715;55.752;37.884;2023-08-20T06:18:16;99348.53;;;35.96;29.34
54816;BME280;40715;55.752;37.884;2023-08-20T06:20:43;99342.63;;;35.99;29.28
54816;BME280;40715;55.752;37.884;2023-08-20T06:23:10;99351.28;;;36.02;29.46
54816;BME280;40715;55.752;37.884;2023-08-20T06:25:38;99354.03;;;36.02;29.09
54816;BME280;40715;55.752;37.884;2023-08-20T06:28:05;99344.75;;;36.03;29.16
54816;BME280;40715;55.752;37.884;2023-08-20T06:30:32;99343.50;;;36.06;29.02
54816;BME280;40715;55.752;37.884;2023-08-20T06:32:59;99339.91;;;36.05;29.20
54816;BME280;40715;55.752;37.884;2023-08-20T06:35:26;99334.88;;;36.09;29.08
54816;BME280;40715;55.752;37.884;2023-08-20T06:37:53;99332.31;;;36.14;28.88
54816;BME280;40715;55.752;37.884;2023-08-20T06:40:20;99334.63;;;36.17;29.05
54816;BME280;40715;55.752;37.884;2023-08-20T06:42:47;99329.59;;;36.21;28.73
54816;BME280;40715;55.752;37.884;2023-08-20T06:45:14;99316.50;;;36.23;29.21
54816;BME280;40715;55.752;37.884;2023-08-20T06:47:41;99324.38;;;36.33;28.70
54816;BME280;40715;55.752;37.884;2023-08-20T06:50:08;99323.31;;;36.34;28.68
54816;BME280;40715;55.752;37.884;2023-08-20T06:52:35;99320.81;;;36.39;28.88
54816;BME280;40715;55.752;37.884;2023-08-20T06:55:03;99316.38;;;36.44;28.63
54816;BME280;40715;55.752;37.884;2023-08-20T06:57:30;99318.47;;;36.49;28.95
54816;BME280;40715;55.752;37.884;2023-08-20T06:59:57;99318.47;;;36.49;28.85
54816;BME280;40715;55.752;37.884;2023-08-20T07:02:24;99320.38;;;36.55;28.78
54816;BME280;40715;55.752;37.884;2023-08-20T07:04:51;99325.22;;;36.60;28.36
54816;BME280;40715;55.752;37.884;2023-08-20T07:07:18;99325.03;;;36.61;28.69
54816;BME280;40715;55.752;37.884;2023-08-20T07:09:45;99320.38;;;36.62;28.32
54816;BME280;40715;55.752;37.884;2023-08-20T07:12:11;99318.25;;;36.64;28.77
54816;BME280;40715;55.752;37.884;2023-08-20T07:14:38;99314.88;;;36.62;28.59
54816;BME280;40715;55.752;37.884;2023-08-20T07:17:05;99315.09;;;36.67;28.29
54816;BME280;40715;55.752;37.884;2023-08-20T07:19:32;99315.09;;;36.67;28.19
54816;BME280;40715;55.752;37.884;2023-08-20T07:21:59;99313.81;;;36.70;28.60
54816;BME280;40715;55.752;37.884;2023-08-20T07:24:26;99317.41;;;36.70;28.55
54816;BME280;40715;55.752;37.884;2023-08-20T07:26:55;99315.50;;;36.71;28.30
54816;BME280;40715;55.752;37.884;2023-08-20T07:29:27;99311.50;;;36.73;28.11
54816;BME280;40715;55.752;37.884;2023-08-20T07:31:57;99306.63;;;36.75;28.43
54816;BME280;40715;55.752;37.884;2023-08-20T07:34:24;99307.09;;;36.79;28.25
54816;BME280;40715;55.752;37.884;2023-08-20T07:36:51;99314.91;;;36.82;28.14
54816;BME280;40715;55.752;37.884;2023-08-20T07:39:18;99309.84;;;36.86;28.12
54816;BME280;40715;55.752;37.884;2023-08-20T07:41:45;99310.66;;;36.86;28.12
54816;BME280;40715;55.752;37.884;2023-08-20T07:44:12;99305.41;;;36.91;28.49
54816;BME280;40715;55.752;37.884;2023-08-20T07:46:39;99302.44;;;36.93;27.96
54816;BME280;40715;55.752;37.884;2023-08-20T07:49:06;99297.34;;;36.96;28.06
54816;BME280;40715;55.752;37.884;2023-08-20T07:51:34;99294.59;;;36.96;28.42
54816;BME280;40715;55.752;37.884;2023-08-20T07:54:01;99291.41;;;37.00;27.93
54816;BME280;40715;55.752;37.884;2023-08-20T07:56:28;99290.97;;;37.03;28.32
54816;BME280;40715;55.752;37.884;2023-08-20T07:58:55;99287.81;;;37.06;27.91
54816;BME280;40715;55.752;37.884;2023-08-20T08:01:22;99297.72;;;37.13;27.65
54816;BME280;40715;55.752;37.884;2023-08-20T08:03:49;99292.81;;;37.22;27.92
54816;BME280;40715;55.752;37.884;2023-08-20T08:06:16;99292.84;;;37.29;27.95
54816;BME280;40715;55.752;37.884;2023-08-20T08:08:44;99288.78;;;37.38;27.19
54816;BME280;40715;55.752;37.884;2023-08-20T08:11:11;99287.88;;;37.51;27.19
54816;BME280;40715;55.752;37.884;2023-08-20T08:13:39;99282.94;;;37.67;27.05
54816;BME280;40715;55.752;37.884;2023-08-20T08:16:06;99269.81;;;37.75;27.26
54816;BME280;40715;55.752;37.884;2023-08-20T08:18:33;99273.59;;;37.81;26.88
54816;BME280;40715;55.752;37.884;2023-08-20T08:21:00;99271.28;;;37.78;26.83
54816;BME280;40715;55.752;37.884;2023-08-20T08:23:26;99253.28;;;37.82;26.57
54816;BME280;40715;55.752;37.884;2023-08-20T08:25:54;99266.06;;;38.02;26.50
54816;BME280;40715;55.752;37.884;2023-08-20T08:28:21;99265.25;;;38.26;26.13
54816;BME280;40715;55.752;37.884;2023-08-20T08:30:48;99267.84;;;38.46;25.77
54816;BME280;40715;55.752;37.884;2023-08-20T08:33:15;99255.63;;;38.61;25.94
54816;BME280;40715;55.752;37.884;2023-08-20T08:35:41;99261.94;;;38.68;25.89
54816;BME280;40715;55.752;37.884;2023-08-20T08:38:08;99259.53;;;38.78;25.70
54816;BME280;40715;55.752;37.884;2023-08-20T08:40:35;99257.56;;;38.86;25.67
54816;BME280;40715;55.752;37.884;2023-08-20T08:43:03;99252.19;;;38.91;25.77
54816;BME280;40715;55.752;37.884;2023-08-20T08:45:33;99251.56;;;38.89;25.25
54816;BME280;40715;55.752;37.884;2023-08-20T08:48:02;99248.38;;;38.92;25.79
54816;BME280;40715;55.752;37.884;2023-08-20T08:50:31;99252.19;;;38.91;25.35
54816;BME280;40715;55.752;37.884;2023-08-20T08:52:58;99249.19;;;38.92;25.67
54816;BME280;40715;55.752;37.884;2023-08-20T08:55:25;99241.63;;;38.88;25.46
54816;BME280;40715;55.752;37.884;2023-08-20T08:57:52;99249.28;;;38.86;25.50
54816;BME280;40715;55.752;37.884;2023-08-20T09:00:19;99245.31;;;38.81;25.45
54816;BME280;40715;55.752;37.884;2023-08-20T09:02:46;99250.19;;;38.79;25.64
54816;BME280;40715;55.752;37.884;2023-08-20T09:05:13;99240.50;;;38.77;25.53
54816;BME280;40715;55.752;37.884;2023-08-20T09:07:44;99238.63;;;38.71;25.83
54816;BME280;40715;55.752;37.884;2023-08-20T09:10:11;99242.69;;;38.68;25.74
54816;BME280;40715;55.752;37.884;2023-08-20T09:12:38;99248.59;;;38.65;25.48
54816;BME280;40715;55.752;37.884;2023-08-20T09:15:10;99245.31;;;38.56;25.88
54816;BME280;40715;55.752;37.884;2023-08-20T09:17:37;99255.25;;;38.57;25.93
54816;BME280;40715;55.752;37.884;2023-08-20T09:20:06;99251.50;;;38.52;26.03
54816;BME280;40715;55.752;37.884;2023-08-20T09:22:35;99238.84;;;38.44;25.82
54816;BME280;40715;55.752;37.884;2023-08-20T09:25:03;99251.41;;;38.40;26.03
54816;BME280;40715;55.752;37.884;2023-08-20T09:27:38;99240.59;;;38.38;25.82
54816;BME280;40715;55.752;37.884;2023-08-20T09:30:07;99241.91;;;38.36;25.78
54816;BME280;40715;55.752;37.884;2023-08-20T09:32:34;99244.94;;;38.27;26.37
54816;BME280;40715;55.752;37.884;2023-08-20T09:35:01;99238.44;;;38.22;26.42
54816;BME280;40715;55.752;37.884;2023-08-20T09:37:28;99233.34;;;38.19;26.10
54816;BME280;40715;55.752;37.884;2023-08-20T09:39:55;99232.13;;;38.14;26.43
54816;BME280;40715;55.752;37.884;2023-08-20T09:42:23;99221.63;;;38.05;26.58
54816;BME280;40715;55.752;37.884;2023-08-20T09:44:55;99220.00;;;37.97;26.46
54816;BME280;40715;55.752;37.884;2023-08-20T09:47:23;99220.72;;;37.86;26.68
54816;BME280;40715;55.752;37.884;2023-08-20T09:49:53;99213.78;;;37.76;26.75
54816;BME280;40715;55.752;37.884;2023-08-20T09:52:39;99208.06;;;37.78;26.65
54816;BME280;40715;55.752;37.884;2023-08-20T09:55:17;99204.72;;;37.69;27.08
54816;BME280;40715;55.752;37.884;2023-08-20T09:57:47;99201.41;;;37.54;26.68
54816;BME280;40715;55.752;37.884;2023-08-20T10:00:14;99207.38;;;37.51;27.26
54816;BME280;40715;55.752;37.884;2023-08-20T10:02:44;99209.53;;;37.42;26.79
54816;BME280;40715;55.752;37.884;2023-08-20T10:05:12;99204.28;;;37.34;27.37
54816;BME280;40715;55.752;37.884;2023-08-20T10:07:39;99191.59;;;37.33;27.12
54816;BME280;40715;55.752;37.884;2023-08-20T10:10:09;99195.88;;;37.28;27.11
54816;BME280;40715;55.752;37.884;2023-08-20T10:12:39;99193.50;;;37.25;27.31
54816;BME280;40715;55.752;37.884;2023-08-20T10:15:08;99183.84;;;37.23;27.12
54816;BME280;40715;55.752;37.884;2023-08-20T10:17:38;99190.81;;;37.19;27.09
54816;BME280;40715;55.752;37.884;2023-08-20T10:20:06;99189.78;;;37.13;27.50
54816;BME280;40715;55.752;37.884;2023-08-20T10:22:40;99188.69;;;37.14;27.29
54816;BME280;40715;55.752;37.884;2023-08-20T10:25:09;99186.41;;;37.11;27.77
54816;BME280;40715;55.752;37.884;2023-08-20T10:27:38;99184.09;;;37.08;27.71
54816;BME280;40715;55.752;37.884;2023-08-20T10:30:10;99185.16;;;37.07;27.67
54816;BME280;40715;55.752;37.884;2023-08-20T10:32:46;99172.31;;;37.01;27.78
54816;BME280;40715;55.752;37.884;2023-08-20T10:35:15;99183.91;;;37.03;27.73
54816;BME280;40715;55.752;37.884;2023-08-20T10:38:02;99190.00;;;37.11;27.68
54816;BME280;40715;55.752;37.884;2023-08-20T10:46:15;99157.69;;;37.07;27.46
54816;BME280;40715;55.752;37.884;2023-08-20T10:48:51;99155.84;;;36.94;27.69
54816;BME280;40715;55.752;37.884;2023-08-20T10:51:29;99152.66;;;36.97;28.03
54816;BME280;40715;55.752;37.884;2023-08-20T10:56:55;99141.69;;;36.97;27.60
54816;BME280;40715;55.752;37.884;2023-08-20T10:59:29;99147.00;;;36.92;27.56
54816;BME280;40715;55.752;37.884;2023-08-20T11:02:01;99139.00;;;36.90;28.02
54816;BME280;40715;55.752;37.884;2023-08-20T11:04:31;99137.31;;;36.83;28.08
54816;BME280;40715;55.752;37.884;2023-08-20T11:07:00;99135.22;;;36.78;27.78
54816;BME280;40715;55.752;37.884;2023-08-20T11:09:29;99136.06;;;36.78;28.15
54816;BME280;40715;55.752;37.884;2023-08-20T11:11:57;99134.38;;;36.77;28.00
54816;BME280;40715;55.752;37.884;2023-08-20T11:14:25;99147.03;;;36.78;28.13
54816;BME280;40715;55.752;37.884;2023-08-20T11:16:52;99132.66;;;36.76;28.10
54816;BME280;40715;55.752;37.884;2023-08-20T11:19:23;99136.25;;;36.77;28.12
54816;BME280;40715;55.752;37.884;2023-08-20T11:21:51;99127.81;;;36.78;27.94
54816;BME280;40715;55.752;37.884;2023-08-20T11:24:18;99130.56;;;36.78;28.03
54816;BME280;40715;55.752;37.884;2023-08-20T11:26:47;99131.63;;;36.77;27.88
54816;BME280;40715;55.752;37.884;2023-08-20T11:29:16;99122.13;;;36.73;28.14
54816;BME280;40715;55.752;37.884;2023-08-20T11:31:49;99117.47;;;36.74;28.11
54816;BME280;40715;55.752;37.884;2023-08-20T11:34:18;99117.31;;;36.69;27.85
54816;BME280;40715;55.752;37.884;2023-08-20T11:36:46;99108.00;;;36.70;28.32
54816;BME280;40715;55.752;37.884;2023-08-20T11:39:13;99097.69;;;36.65;27.89
54816;BME280;40715;55.752;37.884;2023-08-20T11:41:41;99085.44;;;36.68;27.97
54816;BME280;40715;55.752;37.884;2023-08-20T11:44:09;99098.31;;;36.67;27.95
54816;BME280;40715;55.752;37.884;2023-08-20T11:46:42;99099.75;;;36.70;28.08
54816;BME280;40715;55.752;37.884;2023-08-20T11:49:11;99093.00;;;36.66;28.04
54816;BME280;40715;55.752;37.884;2023-08-20T11:51:43;99086.91;;;36.63;28.21
54816;BME280;40715;55.752;37.884;2023-08-20T11:54:16;99082.25;;;36.64;28.38
54816;BME280;40715;55.752;37.884;2023-08-20T11:57:04;99078.44;;;36.72;28.35
54816;BME280;40715;55.752;37.884;2023-08-20T11:59:32;99082.47;;;36.62;27.95
54816;BME280;40715;55.752;37.884;2023-08-20T12:02:01;99075.34;;;36.61;28.47
54816;BME280;40715;55.752;37.884;2023-08-20T12:04:32;99078.91;;;36.62;28.27
54816;BME280;40715;55.752;37.884;2023-08-20T12:07:12;99092.41;;;36.63;28.14
54816;BME280;40715;55.752;37.884;2023-08-20T12:09:40;99082.69;;;36.61;28.02
54816;BME280;40715;55.752;37.884;2023-08-20T12:12:09;99080.19;;;36.59;28.08
54816;BME280;40715;55.752;37.884;2023-08-20T12:14:36;99077.44;;;36.59;28.40
54816;BME280;40715;55.752;37.884;2023-08-20T12:17:03;99075.53;;;36.60;28.49
54816;BME280;40715;55.752;37.884;2023-08-20T12:19:31;99069.66;;;36.56;28.15
54816;BME280;40715;55.752;37.884;2023-08-20T12:21:58;99083.75;;;36.60;28.39
54816;BME280;40715;55.752;37.884;2023-08-20T12:24:25;99064.75;;;36.58;28.05
54816;BME280;40715;55.752;37.884;2023-08-20T12:26:52;99074.69;;;36.59;28.11
54816;BME280;40715;55.752;37.884;2023-08-20T12:29:20;99072.16;;;36.58;28.01
54816;BME280;40715;55.752;37.884;2023-08-20T12:31:47;99076.59;;;36.59;27.94
54816;BME280;40715;55.752;37.884;2023-08-20T12:34:14;99100.44;;;36.58;28.05
54816;BME280;40715;55.752;37.884;2023-08-20T12:36:41;99120.94;;;36.56;28.40
54816;BME280;40715;55.752;37.884;2023-08-20T12:39:08;99152.78;;;36.57;28.05
54816;BME280;40715;55.752;37.884;2023-08-20T12:41:35;99152.16;;;36.55;28.43
54816;BME280;40715;55.752;37.884;2023-08-20T12:44:03;99203.66;;;36.53;28.35
54816;BME280;40715;55.752;37.884;2023-08-20T12:46:30;99241.44;;;36.51;28.25
54816;BME280;40715;55.752;37.884;2023-08-20T12:48:57;99244.19;;;36.51;28.40
54816;BME280;40715;55.752;37.884;2023-08-20T12:51:24;99217.19;;;36.48;28.28
54816;BME280;40715;55.752;37.884;2023-08-20T12:53:51;99200.72;;;36.48;28.41
54816;BME280;40715;55.752;37.884;2023-08-20T12:56:18;99191.84;;;36.45;28.58
54816;BME280;40715;55.752;37.884;2023-08-20T12:58:45;99208.31;;;36.45;28.48
54816;BME280;40715;55.752;37.884;2023-08-20T13:01:12;99212.34;;;36.43;28.46
54816;BME280;40715;55.752;37.884;2023-08-20T13:03:40;99203.47;;;36.41;28.21
54816;BME280;40715;55.752;37.884;2023-08-20T13:06:07;99219.50;;;36.44;28.25
54816;BME280;40715;55.752;37.884;2023-08-20T13:08:35;99200.72;;;36.41;28.40
54816;BME280;40715;55.752;37.884;2023-08-20T13:11:03;99179.00;;;36.39;28.61